Terminal Aerodrome Forecast
Issued by NWS

Home | Current Version | Previous Version | Text Only | Print | Product List | Glossary On
Versions: 1 2 3 4 5 6 7 8 9 10 11 12 13 14 15 16 17 18 19
381
FTUS42 KILM 302320
TAFCRE
TAF
KCRE 302320Z 3100/3124 12010KT P6SM FEW025 BKN070
     FM310700 15012KT 6SM SHRA SCT015 OVC040
      TEMPO 3108/3112 2SM +TSRA OVC015CB
     FM311200 20014KT 4SM TSRA OVC025CB
     FM311500 20013KT P6SM VCSH BKN040
     FM311800 21019G27KT P6SM BKN045 PROB30 3118/3121 4SM TSRA
      OVC015CB=

USA.gov is the U.S. government's official web portal to all federal, state and local government web resources and services.